Time;durP1;ratioP1;P1;durP2;ratioP2;P2;SDS_P1;SDS_P2;PMS_P1;PMS_P2;Temp;Humidity;BMP_temperature;BMP_pressure;BME280_temperature;BME280_humidity;BME280_pressure;Samples;Min_cycle;Max_cycle;Signal;HPM_P1;HPM_P2
2023/12/01 00:02:07;;;;;;;24.02;15.88;;;;;;;2.91;96.08;99217.25;4919188;29;20074;-71
2023/12/01 00:05:28;;;;;;;38.60;23.27;;;;;;;2.91;95.16;99232.72;4919147;29;20533;-71
2023/12/01 00:08:38;;;;;;;26.75;16.83;;;;;;;2.96;95.06;99233.38;4918949;29;20062;-71
2023/12/01 00:11:59;;;;;;;19.90;13.57;;;;;;;2.98;94.24;99229.00;4919036;29;20051;-72
2023/12/01 00:15:21;;;;;;;22.08;14.10;;;;;;;2.97;94.11;99229.06;4918757;29;20112;-71
2023/12/01 00:18:39;;;;;;;25.02;15.45;;;;;;;2.87;94.52;99231.19;4918797;29;20139;-71
2023/12/01 00:21:59;;;;;;;24.83;16.13;;;;;;;2.91;94.30;99222.41;4918826;29;20067;-71
2023/12/01 00:25:11;;;;;;;24.50;16.83;;;;;;;2.84;93.73;99221.00;4918788;29;20047;-71
2023/12/01 00:28:34;;;;;;;30.42;19.80;;;;;;;2.82;94.04;99220.22;4919013;29;20047;-71
2023/12/01 00:31:40;;;;;;;24.95;18.02;;;;;;;2.84;94.51;99230.44;4906942;29;20100;-71
2023/12/01 00:35:07;;;;;;;21.23;15.80;;;;;;;2.93;93.96;99233.50;4918811;29;20181;-71
2023/12/01 00:38:37;;;;;;;20.27;14.30;;;;;;;2.87;94.14;99230.31;4907460;29;20059;-71
2023/12/01 00:41:44;;;;;;;17.77;14.00;;;;;;;2.92;93.44;99231.00;4918727;29;20118;-71
2023/12/01 00:45:16;;;;;;;19.10;14.82;;;;;;;2.97;93.25;99224.75;4918432;29;20119;-71
2023/12/01 00:48:44;;;;;;;16.80;13.95;;;;;;;2.80;92.62;99214.25;4918405;29;20047;-71
2023/12/01 00:52:11;;;;;;;17.33;13.55;;;;;;;2.72;93.95;99211.16;4917301;29;20047;-71
2023/12/01 00:55:17;;;;;;;21.02;14.73;;;;;;;2.80;93.71;99214.25;4906824;29;20119;-71
2023/12/01 00:58:29;;;;;;;16.95;14.23;;;;;;;2.86;93.25;99228.66;4895729;29;20055;-71
2023/12/01 01:01:57;;;;;;;18.88;13.38;;;;;;;2.88;92.53;99237.19;4907643;29;20055;-71
2023/12/01 01:05:22;;;;;;;17.90;14.30;;;;;;;2.82;91.65;99243.44;4907069;29;20509;-71
2023/12/01 01:08:39;;;;;;;18.20;14.02;;;;;;;2.90;91.66;99249.09;4906910;29;20051;-71
2023/12/01 01:12:00;;;;;;;18.63;13.48;;;;;;;2.92;91.45;99256.81;4906318;29;20207;-71
2023/12/01 01:15:11;;;;;;;15.10;11.27;;;;;;;2.55;93.22;99259.16;4917543;29;20116;-72
2023/12/01 01:18:26;;;;;;;14.48;11.20;;;;;;;2.43;92.08;99261.38;4906095;29;20050;-71
2023/12/01 01:21:48;;;;;;;13.75;11.43;;;;;;;2.63;91.73;99258.81;4917721;29;20466;-71
2023/12/01 01:24:58;;;;;;;14.18;11.15;;;;;;;2.72;91.41;99260.22;4917720;29;20066;-71
2023/12/01 01:28:12;;;;;;;14.60;11.75;;;;;;;2.74;91.24;99260.97;4917598;29;20047;-71
2023/12/01 01:31:37;;;;;;;13.88;11.75;;;;;;;2.64;90.42;99272.56;4906967;29;20121;-71
2023/12/01 01:34:50;;;;;;;12.57;10.07;;;;;;;2.36;90.34;99271.06;4917827;29;20447;-71
2023/12/01 01:38:06;;;;;;;11.90;10.07;;;;;;;2.44;88.65;99269.03;4906068;29;20070;-71
2023/12/01 01:41:27;;;;;;;11.88;9.43;;;;;;;2.35;89.12;99271.13;4917457;29;20107;-71
2023/12/01 01:44:43;;;;;;;12.23;9.98;;;;;;;2.58;89.16;99275.38;4905693;29;20485;-71
2023/12/01 01:48:08;;;;;;;11.20;9.27;;;;;;;2.58;88.70;99275.38;4917314;29;20047;-71
2023/12/01 01:51:29;;;;;;;12.48;8.25;;;;;;;2.64;87.80;99272.56;4905743;29;20131;-71
2023/12/01 01:54:50;;;;;;;10.18;8.50;;;;;;;2.61;86.84;99264.94;4917453;29;20513;-71
2023/12/01 01:58:15;;;;;;;10.98;8.40;;;;;;;2.59;86.40;99275.34;4895408;29;20072;-71
2023/12/01 02:01:43;;;;;;;11.95;9.57;;;;;;;2.49;87.24;99274.88;4905811;29;20059;-71
2023/12/01 02:05:02;;;;;;;9.68;7.80;;;;;;;2.48;87.75;99269.75;4905694;29;20131;-71
2023/12/01 02:08:30;;;;;;;12.02;8.45;;;;;;;2.46;87.20;99274.16;4917244;29;20119;-71
2023/12/01 02:11:45;;;;;;;11.25;8.65;;;;;;;2.05;89.31;99274.81;4916999;29;20074;-71
2023/12/01 02:15:11;;;;;;;11.07;8.52;;;;;;;2.07;88.80;99275.63;4905820;29;20051;-71
2023/12/01 02:18:29;;;;;;;10.30;8.02;;;;;;;2.31;88.36;99267.84;4897943;29;20464;-71
2023/12/01 02:21:47;;;;;;;11.60;9.30;;;;;;;2.44;88.46;99283.69;4897895;29;20426;-71
2023/12/01 02:25:01;;;;;;;8.48;7.30;;;;;;;2.37;88.35;99283.06;4897918;29;20489;-71
2023/12/01 02:28:16;;;;;;;8.40;6.90;;;;;;;2.40;88.26;99293.28;4897862;29;20044;-71
2023/12/01 02:31:47;;;;;;;8.35;6.85;;;;;;;2.53;87.70;99299.63;4898036;29;20048;-71
2023/12/01 02:34:56;;;;;;;;;;;;;;;2.48;87.12;99291.22;4898156;29;20482;-71
2023/12/01 02:38:20;;;;;;;7.35;5.78;;;;;;;2.58;86.41;99296.03;4897630;29;19926;-71
2023/12/01 02:41:49;;;;;;;6.82;5.85;;;;;;;2.55;85.96;99304.72;4897736;29;20048;-71
2023/12/01 02:45:07;;;;;;;8.52;5.93;;;;;;;2.48;86.44;99306.72;4897918;29;20136;-71
2023/12/01 02:48:33;;;;;;;6.55;5.07;;;;;;;2.45;85.92;99314.56;4897733;29;20506;-71
2023/12/01 02:51:50;;;;;;;8.45;5.47;;;;;;;2.44;86.22;99302.56;4886454;29;20063;-71
2023/12/01 02:55:16;;;;;;;6.85;5.15;;;;;;;2.49;85.19;99316.16;4897635;29;20108;-71
2023/12/01 02:58:44;;;;;;;6.80;5.40;;;;;;;2.49;86.06;99303.25;4897536;29;20051;-71
2023/12/01 03:01:58;;;;;;;6.05;5.03;;;;;;;2.49;86.18;99302.38;4897597;29;20117;-71
2023/12/01 03:05:07;;;;;;;6.47;4.78;;;;;;;2.49;86.10;99304.97;4885880;29;20517;-71
2023/12/01 03:08:31;;;;;;;7.25;5.53;;;;;;;2.38;86.22;99300.22;4897503;29;20051;-71
2023/12/01 03:11:38;;;;;;;5.88;5.03;;;;;;;2.30;87.86;99291.97;4897449;29;20480;-71
2023/12/01 03:14:44;;;;;;;6.57;5.22;;;;;;;2.16;87.38;99291.63;4887689;29;20126;-71
2023/12/01 03:18:06;;;;;;;6.60;4.93;;;;;;;2.26;86.96;99293.78;4889680;29;20102;-71
2023/12/01 03:21:21;;;;;;;7.03;5.10;;;;;;;2.31;86.11;99293.63;4890155;29;20064;-71
2023/12/01 03:24:44;;;;;;;6.65;4.22;;;;;;;2.39;85.21;99303.63;4890351;29;20060;-71
2023/12/01 03:28:06;;;;;;;7.35;4.90;;;;;;;2.30;86.87;99300.53;4901029;29;20127;-71
2023/12/01 03:31:15;;;;;;;6.70;4.80;;;;;;;2.28;86.97;99298.91;4889461;29;20397;-71
2023/12/01 03:34:20;;;;;;;7.20;4.72;;;;;;;2.32;86.94;99301.28;4889501;29;20100;-71
2023/12/01 03:37:49;;;;;;;6.63;4.07;;;;;;;2.33;85.98;99299.56;4889817;29;20050;-71
2023/12/01 03:41:13;;;;;;;7.32;5.55;;;;;;;2.17;87.67;99298.44;4889545;29;20059;-71
2023/12/01 03:44:40;;;;;;;6.25;4.82;;;;;;;1.98;89.82;99301.75;4900696;29;20043;-71
2023/12/01 03:47:55;;;;;;;6.65;4.97;;;;;;;2.03;90.06;99302.38;4889393;29;20079;-71
2023/12/01 03:51:11;;;;;;;6.30;4.70;;;;;;;2.11;89.37;99315.00;4889453;29;20060;-71
2023/12/01 03:54:32;;;;;;;7.90;6.13;;;;;;;2.17;89.57;99313.94;4900486;29;20122;-71
2023/12/01 03:57:50;;;;;;;19.30;12.43;;;;;;;2.12;89.67;99306.38;4900543;29;20058;-71
2023/12/01 04:01:07;;;;;;;18.17;10.90;;;;;;;2.20;89.73;99308.66;4900384;29;20058;-71
2023/12/01 04:04:14;;;;;;;7.60;6.03;;;;;;;2.16;89.88;99310.50;4900379;29;20090;-71
2023/12/01 04:07:22;;;;;;;7.97;5.93;;;;;;;2.07;90.16;99322.03;4900490;29;20055;-70
2023/12/01 04:10:36;;;;;;;9.63;5.63;;;;;;;2.00;90.42;99317.13;4900483;29;20099;-71
2023/12/01 04:13:47;;;;;;;7.75;4.40;;;;;;;2.03;90.65;99317.84;4888901;29;20139;-71
2023/12/01 04:17:08;;;;;;;6.45;4.55;;;;;;;1.90;90.92;99324.38;4909616;29;20422;-71
2023/12/01 04:20:29;;;;;;;6.15;4.78;;;;;;;1.72;92.30;99327.59;4918128;29;20104;-71
2023/12/01 04:23:50;;;;;;;9.27;5.65;;;;;;;1.78;91.69;99329.94;4918271;29;20135;-71
2023/12/01 04:27:10;;;;;;;6.00;4.32;;;;;;;1.82;91.01;99326.38;4918684;29;20107;-71
2023/12/01 04:30:17;;;;;;;5.35;4.03;;;;;;;1.63;91.17;99332.19;4918712;29;20055;-71
2023/12/01 04:33:23;;;;;;;7.63;4.35;;;;;;;1.54;91.18;99322.19;4918588;29;20577;-71
2023/12/01 04:36:59;;;;;;;5.43;4.05;;;;;;;1.47;91.48;99325.00;4918523;29;20421;-71
2023/12/01 04:40:26;;;;;;;9.45;5.40;;;;;;;1.65;91.60;99318.41;4917865;29;20638;-71
2023/12/01 04:43:39;;;;;;;6.53;4.40;;;;;;;1.77;90.34;99317.97;4918456;29;20585;-71
2023/12/01 04:46:46;;;;;;;6.57;5.15;;;;;;;1.79;91.04;99313.63;4918355;29;20047;-72
2023/12/01 04:50:02;;;;;;;5.93;4.88;;;;;;;1.63;91.13;99313.31;4918354;29;20050;-72
2023/12/01 04:53:19;;;;;;;6.90;4.68;;;;;;;1.72;91.14;99312.97;4918247;29;20058;-68
2023/12/01 04:56:38;;;;;;;8.55;5.88;;;;;;;1.72;91.39;99315.53;4918559;29;20055;-71
2023/12/01 04:59:59;;;;;;;29.92;17.23;;;;;;;1.66;90.17;99326.09;4918086;29;20104;-70
2023/12/01 05:03:30;;;;;;;41.17;20.00;;;;;;;1.87;89.05;99329.63;4918401;29;20110;-70
2023/12/01 05:06:50;;;;;;;12.70;8.07;;;;;;;1.92;88.65;99332.91;4917872;29;20107;-68
2023/12/01 05:10:15;;;;;;;10.55;7.45;;;;;;;2.00;88.57;99343.75;4918028;29;20039;-70
2023/12/01 05:13:20;;;;;;;9.50;6.85;;;;;;;1.96;88.22;99342.19;4917873;29;20103;-70
2023/12/01 05:16:38;;;;;;;56.75;32.42;;;;;;;1.96;88.95;99355.06;4917703;29;20068;-72
2023/12/01 05:19:53;;;;;;;22.77;15.23;;;;;;;1.80;89.92;99364.25;4915709;29;20582;-75
2023/12/01 05:23:07;;;;;;;48.85;27.00;;;;;;;1.90;89.12;99375.06;4888370;29;20062;-73
2023/12/01 05:26:14;;;;;;;29.08;17.98;;;;;;;1.97;89.23;99367.06;4916552;29;20103;-75
2023/12/01 05:29:21;;;;;;;25.73;15.60;;;;;;;1.97;89.01;99363.66;4915294;29;20054;-77
2023/12/01 05:32:27;;;;;;;52.72;30.13;;;;;;;2.09;89.74;99366.63;4905451;29;20050;-66
2023/12/01 05:35:32;;;;;;;66.68;37.22;;;;;;;2.08;89.66;99375.28;4916913;29;20083;-74
2023/12/01 05:38:42;;;;;;;28.23;17.95;;;;;;;2.15;88.61;99369.91;4916694;29;20099;-72
2023/12/01 05:41:45;;;;;;;9.10;6.93;;;;;;;2.09;88.95;99379.53;4916767;29;20047;-70
2023/12/01 05:44:50;;;;;;;6.80;5.15;;;;;;;1.99;89.18;99382.50;4917234;29;20087;-77
2023/12/01 05:47:56;;;;;;;6.47;4.70;;;;;;;2.02;89.58;99383.22;4904244;29;20051;-73
2023/12/01 05:51:01;;;;;;;5.93;4.28;;;;;;;2.09;89.31;99396.72;4915776;29;20054;-72
2023/12/01 05:54:05;;;;;;;6.13;4.63;;;;;;;1.90;89.40;99399.13;4910185;29;20090;-73
2023/12/01 05:57:09;;;;;;;6.82;4.63;;;;;;;1.79;87.38;99399.50;4893234;29;20100;-73
2023/12/01 06:00:32;;;;;;;6.20;4.43;;;;;;;1.86;83.95;99402.69;4902342;29;20051;-74
2023/12/01 06:03:43;;;;;;;6.43;4.60;;;;;;;2.00;85.39;99404.78;4905590;29;20055;-70
2023/12/01 06:06:54;;;;;;;6.50;4.63;;;;;;;2.05;83.72;99406.31;4897671;29;20094;-72
2023/12/01 06:10:06;;;;;;;7.60;5.70;;;;;;;1.96;85.81;99401.47;4897442;29;20088;-71
2023/12/01 06:13:26;;;;;;;7.20;5.00;;;;;;;1.95;86.36;99414.44;4897100;29;20050;-69
2023/12/01 06:17:04;;;;;;;7.85;5.80;;;;;;;1.91;86.60;99418.84;4897796;29;20147;-70
2023/12/01 06:20:19;;;;;;;7.22;5.45;;;;;;;1.86;87.16;99418.16;4896394;29;20043;-70
2023/12/01 06:23:32;;;;;;;8.27;6.50;;;;;;;1.96;86.82;99426.44;4896789;29;20518;-71
2023/12/01 06:26:39;;;;;;;8.30;6.40;;;;;;;1.78;85.86;99417.56;4897439;29;20047;-73
2023/12/01 06:30:04;;;;;;;8.18;6.75;;;;;;;1.75;86.70;99417.69;4897797;29;20104;-71
2023/12/01 06:33:14;;;;;;;10.35;7.50;;;;;;;1.68;86.89;99413.63;4897887;29;20051;-73
2023/12/01 06:36:21;;;;;;;9.73;6.60;;;;;;;1.68;87.72;99405.91;4914012;29;20483;-73
2023/12/01 06:39:30;;;;;;;9.82;7.63;;;;;;;1.79;86.44;99420.13;4916563;29;20051;-73
2023/12/01 06:42:48;;;;;;;10.15;6.80;;;;;;;1.73;86.58;99417.75;4916547;29;20042;-73
2023/12/01 06:45:57;;;;;;;9.68;7.80;;;;;;;1.75;86.25;99426.25;4905264;29;20055;-74
2023/12/01 06:49:03;;;;;;;9.00;6.50;;;;;;;1.75;87.31;99433.97;4893281;29;20055;-74
2023/12/01 06:52:08;;;;;;;7.05;6.07;;;;;;;1.91;85.09;99436.88;4912495;29;20105;-72
2023/12/01 06:55:15;;;;;;;8.52;6.28;;;;;;;1.96;85.42;99440.16;4901616;29;20115;-72
2023/12/01 06:58:27;;;;;;;8.48;6.63;;;;;;;2.00;83.71;99446.88;4901908;29;20486;-73
2023/12/01 07:01:43;;;;;;;8.43;7.00;;;;;;;2.09;83.27;99459.47;4905186;29;20130;-73
2023/12/01 07:04:55;;;;;;;8.85;6.10;;;;;;;1.86;84.70;99474.88;4901848;29;20072;-74
2023/12/01 07:08:01;;;;;;;7.10;5.88;;;;;;;1.72;86.87;99469.31;4900946;29;20479;-74
2023/12/01 07:11:11;;;;;;;8.02;6.07;;;;;;;1.68;87.13;99462.59;4901163;29;20639;-73
2023/12/01 07:14:23;;;;;;;7.60;6.28;;;;;;;1.61;87.77;99472.25;4901093;29;20047;-73
2023/12/01 07:17:45;;;;;;;8.13;6.50;;;;;;;1.67;85.93;99460.91;4900811;29;20054;-73
2023/12/01 07:20:52;;;;;;;6.97;5.70;;;;;;;1.60;86.22;99468.84;4901326;29;20509;-74
2023/12/01 07:24:08;;;;;;;9.50;6.93;;;;;;;1.46;87.39;99471.00;4900961;29;20055;-71
2023/12/01 07:27:25;;;;;;;10.05;6.47;;;;;;;1.47;86.09;99472.72;4900018;29;20105;-70
2023/12/01 07:30:41;;;;;;;7.82;6.13;;;;;;;1.33;86.12;99467.97;4898285;29;20095;-72
2023/12/01 07:33:56;;;;;;;9.90;6.75;;;;;;;1.71;87.87;99475.38;4897916;29;20067;-62
2023/12/01 07:37:11;;;;;;;8.70;5.97;;;;;;;2.03;86.71;99475.13;4897632;29;20083;-71
2023/12/01 07:40:31;;;;;;;8.05;6.30;;;;;;;1.89;86.79;99461.06;4898567;29;20521;-71
2023/12/01 07:43:52;;;;;;;9.60;6.38;;;;;;;1.96;86.68;99471.09;4898333;29;20059;-72
2023/12/01 07:46:56;;;;;;;9.10;6.78;;;;;;;1.97;86.09;99464.19;4898790;29;20079;-72
2023/12/01 07:50:07;;;;;;;8.65;6.88;;;;;;;1.90;86.35;99471.28;4898509;29;20092;-72
2023/12/01 07:53:25;;;;;;;9.18;6.63;;;;;;;1.95;86.49;99469.41;4897031;29;20055;-72
2023/12/01 07:56:41;;;;;;;12.60;7.05;;;;;;;2.03;87.00;99469.97;4897332;29;20418;-72
2023/12/01 07:59:46;;;;;;;9.35;6.70;;;;;;;2.07;87.10;99476.75;4896396;29;20047;-72
2023/12/01 08:03:02;;;;;;;10.27;7.13;;;;;;;2.08;86.12;99473.25;4897127;29;20059;-72
2023/12/01 08:06:09;;;;;;;8.98;6.50;;;;;;;2.10;86.12;99466.28;4897032;29;20132;-71
2023/12/01 08:09:16;;;;;;;10.95;6.40;;;;;;;2.09;86.15;99474.09;4897606;29;20168;-73
2023/12/01 08:12:35;;;;;;;9.18;6.10;;;;;;;1.88;87.46;99473.06;4898501;29;20571;-73
2023/12/01 08:15:44;;;;;;;7.40;5.93;;;;;;;1.98;86.40;99477.06;4898369;29;20063;-74
2023/12/01 08:18:58;;;;;;;8.13;6.78;;;;;;;2.02;87.13;99480.34;4898670;29;20055;-74
2023/12/01 08:22:23;;;;;;;8.68;6.20;;;;;;;1.57;87.93;99481.81;4898341;29;20118;-73
2023/12/01 08:25:36;;;;;;;8.70;6.40;;;;;;;1.82;87.21;99481.88;4898644;29;20067;-70
2023/12/01 08:28:43;;;;;;;8.20;6.32;;;;;;;2.02;85.82;99488.94;4898153;29;20464;-68
2023/12/01 08:31:52;;;;;;;9.70;6.43;;;;;;;2.07;86.79;99492.22;4898505;29;20060;-66
2023/12/01 08:35:02;;;;;;;12.05;7.03;;;;;;;2.04;86.67;99499.19;4898132;29;20150;-70
2023/12/01 08:38:18;;;;;;;9.63;6.97;;;;;;;2.13;86.30;99505.78;4898197;29;20139;-75
2023/12/01 08:41:24;;;;;;;10.13;6.95;;;;;;;2.23;85.53;99499.41;4902338;29;20047;-71
2023/12/01 08:44:39;;;;;;;7.75;6.57;;;;;;;2.11;86.36;99503.25;4916832;29;20087;-70
2023/12/01 08:47:51;;;;;;;9.02;7.05;;;;;;;2.10;86.79;99504.97;4917090;29;20185;-72
2023/12/01 08:51:03;;;;;;;7.93;6.72;;;;;;;2.17;87.11;99502.19;4917024;29;20116;-71
2023/12/01 08:54:15;;;;;;;10.18;6.85;;;;;;;2.24;86.31;99499.34;4910967;29;20162;-71
2023/12/01 08:57:19;;;;;;;;;;;;;;;2.27;85.93;99498.41;4905574;29;20046;-69
2023/12/01 09:00:28;;;;;;;7.75;5.53;;;;;;;2.28;85.45;99494.94;4906392;29;19943;-71
2023/12/01 09:03:35;;;;;;;8.48;6.32;;;;;;;2.31;85.38;99505.16;4911957;29;20138;-70
2023/12/01 09:06:56;;;;;;;9.13;6.70;;;;;;;2.24;85.21;99503.69;4897482;29;20051;-70
2023/12/01 09:10:22;;;;;;;8.98;6.60;;;;;;;2.31;85.25;99505.16;4897690;29;20051;-69
2023/12/01 09:13:48;;;;;;;10.85;6.82;;;;;;;2.39;84.23;99513.44;4897084;29;20201;-69
2023/12/01 09:17:03;;;;;;;9.82;7.85;;;;;;;2.31;82.40;99508.56;4897259;29;20115;-69
2023/12/01 09:20:08;;;;;;;9.25;7.35;;;;;;;2.30;81.89;99518.94;4897275;29;20411;-70
2023/12/01 09:23:17;;;;;;;9.40;7.43;;;;;;;2.14;82.41;99523.78;4904723;29;20052;-69
2023/12/01 09:26:21;;;;;;;8.68;7.07;;;;;;;2.28;81.54;99525.88;4901203;29;20100;-70
2023/12/01 09:29:29;;;;;;;9.93;7.82;;;;;;;2.29;81.49;99519.81;4896737;29;20084;-69
2023/12/01 09:32:47;;;;;;;10.10;7.57;;;;;;;2.23;81.42;99522.59;4897176;29;20095;-70
2023/12/01 09:36:11;;;;;;;10.73;8.13;;;;;;;2.05;82.00;99524.09;4897034;29;20119;-70
2023/12/01 09:39:22;;;;;;;10.50;8.40;;;;;;;2.11;80.68;99529.03;4885232;29;20109;-70
2023/12/01 09:42:43;;;;;;;8.45;6.88;;;;;;;2.08;78.99;99527.41;4896782;29;20521;-70
2023/12/01 09:46:13;;;;;;;9.45;7.25;;;;;;;2.22;78.05;99536.41;4897366;29;20525;-70
2023/12/01 09:49:35;;;;;;;9.18;6.70;;;;;;;2.30;79.49;99542.16;4897283;29;20430;-70
2023/12/01 09:52:49;;;;;;;8.48;6.78;;;;;;;2.42;76.57;99541.72;4895816;29;20112;-70
2023/12/01 09:56:14;;;;;;;6.32;5.32;;;;;;;2.41;75.82;99537.47;4896349;29;20068;-70
2023/12/01 09:59:39;;;;;;;7.68;5.60;;;;;;;2.44;75.96;99529.63;4896293;29;20127;-70
2023/12/01 10:03:08;;;;;;;7.68;5.90;;;;;;;2.44;76.42;99539.94;4896264;29;20075;-70
2023/12/01 10:06:24;;;;;;;6.57;4.97;;;;;;;2.51;74.47;99536.25;4896673;29;20505;-70
2023/12/01 10:09:38;;;;;;;9.18;4.93;;;;;;;2.50;74.99;99547.47;4896945;29;20047;-72
2023/12/01 10:13:12;;;;;;;5.88;4.07;;;;;;;2.51;73.79;99541.41;4896100;29;20056;-70
2023/12/01 10:16:50;;;;;;;5.85;4.32;;;;;;;2.51;75.00;99541.41;4895990;29;20144;-70
2023/12/01 10:20:03;;;;;;;6.55;4.57;;;;;;;2.45;74.52;99546.78;4896308;29;20513;-70
2023/12/01 10:23:17;;;;;;;6.85;5.07;;;;;;;2.59;74.44;99545.47;4896674;29;20433;-69
2023/12/01 10:26:33;;;;;;;6.57;5.10;;;;;;;2.61;74.35;99543.66;4896385;29;20120;-69
2023/12/01 10:29:47;;;;;;;5.55;4.60;;;;;;;2.64;74.63;99552.13;4896702;29;20055;-71
2023/12/01 10:32:51;;;;;;;6.90;5.38;;;;;;;2.56;74.83;99552.41;4896245;29;20043;-70
2023/12/01 10:36:09;;;;;;;7.32;5.82;;;;;;;2.41;75.89;99547.78;4895394;29;20076;-70
2023/12/01 10:39:17;;;;;;;8.27;6.25;;;;;;;2.47;75.10;99532.09;4898326;29;20411;-71
2023/12/01 10:42:30;;;;;;;7.30;5.53;;;;;;;2.43;75.32;99530.53;4902507;29;20087;-78
2023/12/01 10:45:41;;;;;;;8.95;5.35;;;;;;;2.46;75.73;99529.59;4902059;29;20052;-77
2023/12/01 10:48:50;;;;;;;7.35;5.15;;;;;;;2.47;75.76;99515.78;4902511;29;20043;-73
2023/12/01 10:52:00;;;;;;;9.20;5.55;;;;;;;2.38;76.57;99514.34;4905665;29;20573;-73
2023/12/01 10:56:02;;;;;;;7.57;5.68;;;;;;;2.33;76.73;99508.53;4897400;29;20574;-74
2023/12/01 10:59:11;;;;;;;7.95;5.10;;;;;;;2.42;76.23;99510.75;4905771;29;20051;-74
2023/12/01 11:02:22;;;;;;;7.40;5.57;;;;;;;2.41;76.39;99508.25;4895293;29;20120;-74
2023/12/01 11:05:38;;;;;;;7.25;5.50;;;;;;;2.51;76.04;99515.59;4895563;29;20522;-71
2023/12/01 11:09:11;;;;;;;;;;;;;;;2.53;76.01;99516.41;4896635;29;20458;-76
2023/12/01 11:12:37;;;;;;;6.85;4.53;;;;;;;2.63;75.30;99508.31;4903253;29;19965;-77
2023/12/01 11:15:43;;;;;;;7.10;5.38;;;;;;;2.58;75.13;99510.22;4904880;29;20047;-76
2023/12/01 11:18:48;;;;;;;6.10;4.85;;;;;;;2.47;74.71;99508.03;4904727;29;20051;-76
2023/12/01 11:22:32;;;;;;;6.63;4.70;;;;;;;2.43;74.56;99504.72;4902920;29;20047;-76
2023/12/01 11:25:55;;;;;;;5.38;4.20;;;;;;;2.42;74.17;99513.34;4904570;29;20042;-75
2023/12/01 11:32:47;;;;;;;5.60;4.13;;;;;;;2.24;75.34;99519.16;4903835;29;20048;-77
2023/12/01 11:36:25;;;;;;;6.85;4.78;;;;;;;2.30;74.56;99514.63;4903882;29;20095;-78
2023/12/01 11:39:31;;;;;;;6.18;4.60;;;;;;;2.50;74.04;99510.50;4909516;29;20139;-77
2023/12/01 11:42:35;;;;;;;9.65;5.25;;;;;;;2.36;74.89;99507.56;4907769;29;20055;-77
2023/12/01 11:45:41;;;;;;;6.78;4.60;;;;;;;2.40;74.51;99499.66;4902845;29;20091;-73
2023/12/01 11:48:55;;;;;;;6.35;4.35;;;;;;;2.46;74.58;99499.44;4902963;29;20052;-71
2023/12/01 11:52:14;;;;;;;4.63;3.40;;;;;;;2.54;74.04;99491.44;4883830;29;20573;-72
2023/12/01 11:55:19;;;;;;;7.10;3.60;;;;;;;2.45;74.00;99497.75;4887686;29;20075;-72
2023/12/01 11:58:24;;;;;;;5.10;3.10;;;;;;;2.49;73.50;99496.75;4899166;29;20131;-74
2023/12/01 12:01:32;;;;;;;4.85;3.80;;;;;;;2.43;74.85;99499.56;4896153;29;20044;-73
2023/12/01 12:04:40;;;;;;;5.85;3.88;;;;;;;2.58;73.49;99507.63;4891556;29;20472;-69
2023/12/01 12:07:46;;;;;;;10.52;8.80;;;;;;;2.41;73.64;99511.66;4906816;29;20056;-70
2023/12/01 12:10:51;;;;;;;5.93;3.28;;;;;;;2.31;72.48;99502.56;4907297;29;20058;-71
2023/12/01 12:14:01;;;;;;;5.13;3.20;;;;;;;2.42;72.21;99500.44;4899450;29;20071;-72
2023/12/01 12:17:22;;;;;;;5.45;3.55;;;;;;;2.48;73.81;99505.38;4913981;29;20059;-70
2023/12/01 12:20:27;;;;;;;6.93;3.75;;;;;;;2.47;73.19;99508.03;4900506;29;20170;-70
2023/12/01 12:23:37;;;;;;;4.65;3.00;;;;;;;2.49;72.24;99501.94;4913255;29;20513;-70
2023/12/01 12:26:46;;;;;;;5.05;3.50;;;;;;;2.59;72.30;99509.34;4911420;29;20075;-69
2023/12/01 12:29:52;;;;;;;4.65;3.33;;;;;;;2.56;72.91;99505.13;4878700;29;20070;-68
2023/12/01 12:32:58;;;;;;;5.18;2.80;;;;;;;2.58;72.32;99517.97;4904010;29;20055;-69
2023/12/01 12:36:05;;;;;;;4.75;3.47;;;;;;;2.55;71.82;99519.78;4896433;29;20047;-69
2023/12/01 12:39:16;;;;;;;4.40;3.03;;;;;;;2.59;70.61;99524.81;4905165;29;20062;-68
2023/12/01 12:42:21;;;;;;;4.85;3.00;;;;;;;2.47;69.76;99511.44;4905812;29;20067;-68
2023/12/01 12:45:31;;;;;;;3.70;2.75;;;;;;;2.38;69.74;99522.09;4906381;29;20094;-69
2023/12/01 12:48:44;;;;;;;4.43;2.88;;;;;;;2.42;70.41;99535.72;4905877;29;20043;-70
2023/12/01 12:51:50;;;;;;;4.72;3.60;;;;;;;2.53;70.06;99537.03;4902642;29;20047;-71
2023/12/01 12:54:57;;;;;;;4.82;3.10;;;;;;;2.56;69.49;99525.78;4917166;29;20123;-70
2023/12/01 12:58:04;;;;;;;4.57;3.22;;;;;;;2.51;70.12;99528.50;4911365;29;20100;-71
2023/12/01 13:01:09;;;;;;;4.55;3.13;;;;;;;2.56;70.25;99525.78;4908645;29;20116;-71
2023/12/01 13:04:24;;;;;;;5.97;2.90;;;;;;;2.31;69.53;99515.47;4909803;29;20084;-70
2023/12/01 13:07:32;;;;;;;4.88;3.33;;;;;;;2.37;69.84;99525.56;4904496;29;20058;-70
2023/12/01 13:10:39;;;;;;;5.30;3.17;;;;;;;2.31;70.46;99536.94;4905361;29;20506;-70
2023/12/01 13:13:47;;;;;;;5.72;3.03;;;;;;;2.07;70.49;99546.34;4888221;29;20054;-71
2023/12/01 13:16:52;;;;;;;4.07;2.80;;;;;;;1.78;70.02;99542.13;4906680;29;20063;-71
2023/12/01 13:19:59;;;;;;;4.10;2.80;;;;;;;1.78;70.10;99533.56;4917143;29;20422;-71
2023/12/01 13:23:05;;;;;;;5.28;3.85;;;;;;;1.85;71.66;99532.47;4917124;29;20107;-70
2023/12/01 13:26:16;;;;;;;4.68;3.20;;;;;;;2.10;70.96;99540.22;4905833;29;20062;-70
2023/12/01 13:29:22;;;;;;;4.72;3.08;;;;;;;2.28;69.91;99534.47;4916984;29;20100;-71
2023/12/01 13:32:27;;;;;;;7.53;4.50;;;;;;;1.94;70.08;99531.31;4916009;29;20409;-70
2023/12/01 13:35:40;;;;;;;5.03;3.40;;;;;;;2.06;70.40;99518.03;4916590;29;20050;-71
2023/12/01 13:38:44;;;;;;;5.32;3.20;;;;;;;2.09;69.75;99521.34;4905958;29;20086;-71
2023/12/01 13:41:50;;;;;;;4.90;2.90;;;;;;;1.96;72.70;99511.50;4916994;29;20058;-71
2023/12/01 13:44:59;;;;;;;4.57;3.03;;;;;;;2.12;71.15;99524.72;4910452;29;20532;-71
2023/12/01 13:48:05;;;;;;;5.30;3.30;;;;;;;1.99;70.89;99526.88;4906768;29;20192;-71
2023/12/01 13:51:13;;;;;;;4.28;2.45;;;;;;;1.97;69.67;99528.66;4905847;29;20047;-71
2023/12/01 13:54:17;;;;;;;3.83;2.40;;;;;;;2.00;70.03;99525.97;4905321;29;20132;-71
2023/12/01 13:57:23;;;;;;;3.80;2.30;;;;;;;1.99;70.01;99524.28;4915402;29;20450;-71
2023/12/01 14:00:28;;;;;;;3.47;2.50;;;;;;;2.20;70.50;99522.72;4899099;29;20578;-71
2023/12/01 14:03:36;;;;;;;4.70;2.15;;;;;;;2.24;68.68;99524.31;4905200;29;20055;-70
2023/12/01 14:06:45;;;;;;;4.87;2.53;;;;;;;1.96;67.16;99530.38;4906548;29;20117;-70
2023/12/01 14:09:50;;;;;;;3.00;1.83;;;;;;;2.01;68.15;99531.09;4915056;29;20043;-71
2023/12/01 14:13:06;;;;;;;3.92;2.20;;;;;;;1.86;68.98;99527.25;4900719;29;20558;-71
2023/12/01 14:16:23;;;;;;;3.13;1.95;;;;;;;1.98;69.46;99536.34;4915777;29;20143;-71
2023/12/01 14:19:31;;;;;;;3.50;1.77;;;;;;;2.05;68.22;99522.34;4915132;29;20115;-70
2023/12/01 14:22:38;;;;;;;2.75;1.50;;;;;;;2.01;67.67;99530.22;4904752;29;20099;-71
2023/12/01 14:25:42;;;;;;;2.85;1.58;;;;;;;2.02;68.91;99539.66;4897230;29;20095;-70
2023/12/01 14:28:50;;;;;;;3.30;1.92;;;;;;;2.05;69.52;99539.56;4906544;29;20095;-71
2023/12/01 14:31:56;;;;;;;3.38;1.90;;;;;;;2.13;69.71;99552.19;4902883;29;20533;-70
2023/12/01 14:35:01;;;;;;;3.83;2.17;;;;;;;1.90;68.93;99543.47;4899351;29;20136;-71
2023/12/01 14:38:10;;;;;;;3.13;2.10;;;;;;;2.00;68.42;99542.28;4903637;29;20059;-71
2023/12/01 14:41:16;;;;;;;3.05;1.63;;;;;;;1.80;68.62;99547.25;4906677;29;20055;-70
2023/12/01 14:44:23;;;;;;;2.85;1.73;;;;;;;1.68;68.60;99539.91;4897765;29;20070;-70
2023/12/01 14:47:30;;;;;;;3.03;1.60;;;;;;;1.80;69.02;99549.81;4889651;29;20051;-70
2023/12/01 14:50:35;;;;;;;3.80;1.95;;;;;;;1.91;69.55;99554.63;4915975;29;20067;-71
2023/12/01 14:53:55;;;;;;;3.17;1.67;;;;;;;1.77;69.19;99560.22;4915466;29;20048;-70
2023/12/01 14:57:00;;;;;;;3.60;1.65;;;;;;;1.82;68.83;99568.66;4904019;29;20047;-70
2023/12/01 15:00:10;;;;;;;4.03;2.17;;;;;;;1.30;70.52;99575.41;4915513;29;20052;-70
2023/12/01 15:03:16;;;;;;;3.50;1.85;;;;;;;1.46;69.25;99565.47;4904760;29;20079;-70
2023/12/01 15:06:24;;;;;;;3.88;2.30;;;;;;;1.66;70.10;99582.91;4915609;29;20051;-70
2023/12/01 15:09:31;;;;;;;3.92;2.03;;;;;;;1.85;68.69;99602.06;4915214;29;20051;-68
2023/12/01 15:12:37;;;;;;;3.88;1.75;;;;;;;1.94;69.70;99576.00;4918170;29;20107;-68
2023/12/01 15:15:45;;;;;;;3.15;1.90;;;;;;;1.90;69.31;99594.19;4904724;29;20080;-68
2023/12/01 15:19:01;;;;;;;3.92;2.10;;;;;;;1.85;68.86;99599.47;4888507;29;20112;-70
2023/12/01 15:22:12;;;;;;;6.18;2.20;;;;;;;1.82;68.86;99590.13;4900540;29;20112;-70
2023/12/01 15:25:18;;;;;;;4.28;2.42;;;;;;;1.94;67.75;99593.19;4899821;29;20051;-70